METAR Data
IDs: Format: Raw Decoded Include TAF

Data at: 0009 UTC 23 Mar 2019

METAR for:K42J (Keystone Airpark, FL, US)
Text:K42J 222355Z AUTO 29004KT 9SM CLR 17/M01 A3003 RMK A01 TSNO
Temperature: 17.0°C ( 63°F)
Dewpoint: -1.0°C ( 30°F) [RH = 29%]
Pressure (altimeter):30.03 inches Hg (1017.0 mb)
Winds:from the WNW (290 degrees) at 5 MPH (4 knots; 2.1 m/s)
Visibility: 9 sm ( 14 km)
Ceiling:at least 12,000 feet AGL
Clouds:sky clear below 12,000 feet AGL
QC Flag:automated observation with no human augmentation

TAF for:K42J (Keystone Airpark, FL, US)
Text:No data found